createdAt,value
2022-11-04T00:05:47.788Z,48.12
2022-11-04T00:16:07.895Z,48.30
2022-11-04T00:26:27.851Z,48.33
2022-11-04T00:36:29.437Z,48.43
2022-11-04T00:46:31.829Z,48.25
2022-11-04T00:56:33.371Z,48.29
2022-11-04T01:06:34.944Z,48.27
2022-11-04T01:16:36.421Z,48.36
2022-11-04T01:26:37.825Z,48.37
2022-11-04T01:36:39.418Z,48.41
2022-11-04T01:46:44.211Z,48.27
2022-11-04T01:56:45.679Z,48.41
2022-11-04T02:06:47.475Z,48.37
2022-11-04T02:16:48.886Z,48.31
2022-11-04T02:26:59.239Z,48.43
2022-11-04T02:37:11.663Z,48.47
2022-11-04T02:47:14.622Z,48.48
2022-11-04T02:57:24.374Z,48.59
2022-11-04T03:07:29.053Z,48.71
2022-11-04T03:17:49.309Z,48.82
2022-11-04T03:27:58.467Z,48.94
2022-11-04T03:37:59.848Z,49.07
2022-11-04T03:48:01.264Z,49.00
2022-11-04T03:58:18.002Z,48.95
2022-11-04T04:08:49.563Z,49.13
2022-11-04T04:18:59.516Z,49.18
2022-11-04T04:29:02.961Z,49.25
2022-11-04T04:39:23.994Z,49.32
2022-11-04T04:49:34.808Z,49.39
2022-11-04T04:59:36.194Z,49.41
2022-11-04T05:09:37.586Z,49.28
2022-11-04T05:19:38.970Z,49.16
2022-11-04T05:29:40.376Z,49.33
2022-11-04T05:39:41.768Z,49.25
2022-11-04T05:49:43.159Z,49.31
2022-11-04T05:59:44.879Z,49.17
2022-11-04T06:09:46.277Z,49.10
2022-11-04T06:19:48.005Z,49.10
2022-11-04T06:29:49.371Z,49.13
2022-11-04T06:39:50.876Z,49.27
2022-11-04T06:49:52.257Z,49.35
2022-11-04T06:59:53.658Z,48.89
2022-11-04T07:09:55.048Z,49.10
2022-11-04T07:19:57.010Z,49.09
2022-11-04T07:29:58.440Z,48.79
2022-11-04T07:39:59.827Z,48.87
2022-11-04T07:50:05.265Z,49.34
2022-11-04T08:00:10.193Z,49.61
2022-11-04T08:10:11.638Z,49.73
2022-11-04T08:20:13.119Z,49.52
2022-11-04T08:30:14.700Z,49.58
2022-11-04T08:40:16.138Z,49.59
2022-11-04T08:50:17.670Z,49.42
2022-11-04T09:00:19.141Z,49.20
2022-11-04T09:10:20.601Z,49.37
2022-11-04T09:20:22.638Z,49.11
2022-11-04T09:30:24.155Z,49.08
2022-11-04T09:40:25.601Z,48.46
2022-11-04T09:51:00.470Z,48.03
2022-11-04T10:01:10.793Z,47.80
2022-11-04T10:11:28.060Z,47.91
2022-11-04T10:21:44.915Z,47.97
2022-11-04T10:31:46.291Z,47.79
2022-11-04T10:41:47.723Z,47.65
2022-11-04T10:51:49.097Z,47.32
2022-11-04T11:01:58.429Z,47.09
2022-11-04T11:12:44.150Z,46.82
2022-11-04T11:22:44.577Z,47.23
2022-11-04T11:32:46.486Z,47.28
2022-11-04T11:42:47.851Z,47.66
2022-11-04T11:52:49.266Z,47.80
2022-11-04T12:03:01.114Z,48.16
2022-11-04T12:13:27.706Z,48.32
2022-11-04T12:23:41.935Z,48.60
2022-11-04T12:34:04.608Z,48.54
2022-11-04T12:44:27.553Z,48.80
2022-11-04T12:54:38.194Z,48.86
2022-11-04T13:05:25.957Z,48.99
2022-11-04T13:15:28.763Z,48.94
2022-11-04T13:25:44.591Z,48.63
2022-11-04T13:36:07.071Z,48.70
2022-11-04T13:46:08.544Z,48.39
2022-11-04T13:56:32.247Z,48.58
2022-11-04T14:06:50.993Z,48.68
2022-11-04T14:16:52.462Z,48.91
2022-11-04T14:26:53.842Z,49.44
2022-11-04T14:36:56.348Z,50.38
2022-11-04T14:47:00.959Z,50.95
2022-11-04T14:57:38.535Z,51.07
2022-11-04T15:07:39.953Z,51.35
2022-11-04T15:17:41.517Z,51.47
2022-11-04T15:27:42.893Z,51.71
2022-11-04T15:37:44.268Z,51.76
2022-11-04T15:47:45.716Z,51.91
2022-11-04T15:57:47.128Z,51.99
2022-11-04T16:07:52.400Z,51.71
2022-11-04T16:17:53.794Z,51.81
2022-11-04T16:27:55.159Z,51.66
2022-11-04T16:37:56.559Z,51.64
2022-11-04T16:47:58.689Z,51.62
2022-11-04T16:58:04.711Z,51.70
2022-11-04T17:08:06.470Z,51.77
2022-11-04T17:18:10.060Z,51.70
2022-11-04T17:28:11.446Z,51.60
2022-11-04T17:38:12.919Z,51.65
2022-11-04T17:48:15.272Z,51.51
2022-11-04T17:58:16.646Z,51.61
2022-11-04T18:08:18.111Z,51.69
2022-11-04T18:18:19.603Z,51.81
2022-11-04T18:28:20.976Z,51.82
2022-11-04T18:38:22.889Z,51.68
2022-11-04T18:48:24.351Z,51.76
2022-11-04T18:58:25.783Z,51.81
2022-11-04T19:08:27.169Z,51.89
2022-11-04T19:18:28.745Z,51.86
2022-11-04T19:28:44.526Z,51.95
2022-11-04T19:38:46.696Z,52.00
2022-11-04T19:48:48.231Z,52.04
2022-11-04T19:58:49.631Z,52.12
2022-11-04T20:08:52.691Z,52.25
2022-11-04T20:18:56.824Z,52.12
2022-11-04T20:28:58.427Z,52.29
2022-11-04T20:39:01.669Z,52.33
2022-11-04T20:49:03.319Z,52.31
2022-11-04T20:59:05.972Z,52.25
2022-11-04T21:09:09.346Z,52.26
2022-11-04T21:19:11.851Z,52.25
2022-11-04T21:29:16.277Z,52.23
2022-11-04T21:39:17.730Z,52.14
2022-11-04T21:49:19.146Z,52.17
2022-11-04T21:59:20.675Z,52.11
2022-11-04T22:09:22.116Z,52.00
2022-11-04T22:19:23.568Z,51.77
2022-11-04T22:29:25.748Z,51.80
2022-11-04T22:39:27.224Z,51.86
2022-11-04T22:49:28.769Z,51.77
2022-11-04T22:59:30.248Z,51.77
2022-11-04T23:09:32.986Z,51.81
2022-11-04T23:19:34.591Z,51.82
2022-11-04T23:29:54.553Z,51.90
2022-11-04T23:39:56.036Z,52.09
2022-11-04T23:50:15.883Z,52.08
